createdAt,value
2019-05-05T00:01:14.715Z,46.80
2019-05-05T00:03:47.662Z,46.70
2019-05-05T00:06:16.707Z,46.80
2019-05-05T00:08:45.766Z,46.80
2019-05-05T00:11:16.218Z,46.70
2019-05-05T00:13:58.224Z,46.70
2019-05-05T00:16:35.088Z,46.60
2019-05-05T00:19:04.921Z,46.70
2019-05-05T00:21:34.380Z,46.60
2019-05-05T00:24:04.624Z,46.80
2019-05-05T00:26:34.905Z,46.70
2019-05-05T00:29:04.470Z,47.00
2019-05-05T00:31:34.865Z,46.90
2019-05-05T00:34:05.113Z,46.70
2019-05-05T00:36:35.242Z,47.00
2019-05-05T00:39:06.493Z,46.50
2019-05-05T00:41:35.164Z,46.60
2019-05-05T00:44:04.771Z,46.50
2019-05-05T00:46:51.801Z,46.60
2019-05-05T00:49:21.062Z,46.30
2019-05-05T00:51:49.754Z,46.30
2019-05-05T00:54:18.443Z,46.30
2019-05-05T00:56:47.123Z,46.50
2019-05-05T00:59:17.387Z,46.50
2019-05-05T01:01:50.346Z,46.70
2019-05-05T01:04:20.660Z,47.00
2019-05-05T01:06:49.414Z,47.10
2019-05-05T01:09:21.468Z,46.80
2019-05-05T01:11:50.163Z,47.00
2019-05-05T01:14:18.839Z,46.90
2019-05-05T01:16:47.518Z,46.70
2019-05-05T01:19:16.216Z,46.80
2019-05-05T01:21:45.406Z,46.80
2019-05-05T01:24:14.499Z,47.00
2019-05-05T01:26:44.646Z,47.10
2019-05-05T01:29:15.044Z,46.80
2019-05-05T01:31:45.175Z,47.00
2019-05-05T01:34:15.962Z,46.80
2019-05-05T01:36:45.963Z,46.90
2019-05-05T01:39:22.039Z,47.00
2019-05-05T01:41:54.193Z,46.70
2019-05-05T01:44:24.551Z,46.70
2019-05-05T01:46:54.946Z,46.80
2019-05-05T01:49:25.254Z,47.00
2019-05-05T01:51:55.283Z,47.20
2019-05-05T01:54:24.996Z,47.40
2019-05-05T01:56:55.470Z,47.10
2019-05-05T01:59:25.040Z,47.20
2019-05-05T02:01:55.057Z,47.20
2019-05-05T02:04:25.032Z,47.30
2019-05-05T02:06:54.973Z,47.40
2019-05-05T02:09:25.023Z,47.60
2019-05-05T02:11:54.843Z,47.60
2019-05-05T02:14:24.665Z,47.40
2019-05-05T02:16:54.699Z,47.20
2019-05-05T02:19:25.011Z,47.60
2019-05-05T02:21:54.932Z,47.50
2019-05-05T02:24:25.116Z,47.40
2019-05-05T02:26:54.686Z,47.80
2019-05-05T02:29:28.771Z,48.20
2019-05-05T02:32:15.883Z,47.70
2019-05-05T02:34:46.683Z,47.40
2019-05-05T02:37:16.085Z,47.60
2019-05-05T02:39:57.227Z,48.00
2019-05-05T02:42:16.591Z,47.90
2019-05-05T02:44:45.796Z,47.90
2019-05-05T02:47:29.524Z,48.10
2019-05-05T02:50:01.132Z,47.60
2019-05-05T02:52:34.693Z,47.40
2019-05-05T02:55:04.185Z,47.40
2019-05-05T02:57:34.549Z,47.60
2019-05-05T03:00:24.753Z,47.40
2019-05-05T03:02:55.339Z,47.30
2019-05-05T03:05:24.922Z,47.60
2019-05-05T03:07:55.421Z,47.60
2019-05-05T03:10:26.144Z,47.60
2019-05-05T03:12:55.823Z,47.60
2019-05-05T03:15:30.285Z,47.80
2019-05-05T03:17:59.163Z,47.90
2019-05-05T03:20:27.881Z,47.40
2019-05-05T03:22:56.559Z,48.10
2019-05-05T03:25:25.571Z,48.30
2019-05-05T03:27:54.421Z,48.30
2019-05-05T03:30:26.121Z,48.30
2019-05-05T03:32:55.975Z,48.10
2019-05-05T03:35:25.084Z,48.20
2019-05-05T03:37:54.539Z,48.00
2019-05-05T03:40:24.815Z,47.80
2019-05-05T03:43:04.406Z,47.90
2019-05-05T03:45:40.547Z,47.80
2019-05-05T03:48:09.234Z,47.90
2019-05-05T03:50:38.378Z,48.00
2019-05-05T03:53:07.426Z,48.30
2019-05-05T03:55:36.513Z,48.10
2019-05-05T03:58:05.512Z,48.10
2019-05-05T04:00:51.711Z,48.30
2019-05-05T04:03:20.431Z,48.30
2019-05-05T04:05:57.175Z,48.40
2019-05-05T04:08:26.078Z,47.80
2019-05-05T04:10:55.168Z,48.40
2019-05-05T04:13:24.803Z,48.40
2019-05-05T04:16:09.977Z,48.60
2019-05-05T04:18:48.862Z,48.50
2019-05-05T04:21:30.403Z,48.60
2019-05-05T04:23:47.955Z,48.60
2019-05-05T04:26:16.615Z,48.70
2019-05-05T04:28:45.426Z,48.80
2019-05-05T04:31:14.127Z,48.60
2019-05-05T04:33:44.457Z,49.10
2019-05-05T04:36:14.440Z,48.60
2019-05-05T04:38:43.940Z,48.70
2019-05-05T04:41:14.057Z,48.80
2019-05-05T04:43:44.179Z,48.90
2019-05-05T04:46:14.040Z,48.80
2019-05-05T04:48:47.507Z,48.80
2019-05-05T04:51:17.875Z,49.00
2019-05-05T04:54:06.380Z,48.80
2019-05-05T04:56:35.388Z,48.90
2019-05-05T04:59:04.733Z,49.10
2019-05-05T05:01:33.938Z,49.40
2019-05-05T05:04:10.006Z,49.10
2019-05-05T05:06:48.783Z,49.30
2019-05-05T05:09:17.442Z,48.90
2019-05-05T05:11:46.151Z,49.00
2019-05-05T05:14:14.820Z,48.60
2019-05-05T05:16:43.747Z,49.20
2019-05-05T05:19:13.816Z,49.30
2019-05-05T05:21:43.908Z,49.20
2019-05-05T05:24:14.641Z,48.60
2019-05-05T05:26:44.187Z,49.10
2019-05-05T05:29:15.065Z,49.10
2019-05-05T05:31:44.262Z,48.90
2019-05-05T05:34:14.814Z,48.90
2019-05-05T05:36:44.303Z,49.00
2019-05-05T05:39:33.584Z,49.00
2019-05-05T05:42:04.546Z,49.20
2019-05-05T05:44:37.399Z,49.20
2019-05-05T05:47:14.064Z,48.80
2019-05-05T05:49:56.632Z,49.40
2019-05-05T05:52:25.323Z,49.40
2019-05-05T05:54:54.002Z,49.30
2019-05-05T05:57:24.069Z,49.30
2019-05-05T05:59:54.751Z,49.30
2019-05-05T06:02:24.193Z,49.60
2019-05-05T06:04:53.927Z,49.70
2019-05-05T06:07:24.540Z,49.50
2019-05-05T06:09:54.180Z,49.50
2019-05-05T06:12:24.579Z,49.70
2019-05-05T06:14:53.788Z,49.80
2019-05-05T06:17:23.794Z,49.80
2019-05-05T06:19:53.488Z,49.90
2019-05-05T06:22:30.947Z,50.00
2019-05-05T06:24:54.077Z,49.70
2019-05-05T06:27:23.586Z,50.20
2019-05-05T06:29:54.266Z,49.70
2019-05-05T06:32:23.803Z,49.80
2019-05-05T06:34:53.505Z,50.00
2019-05-05T06:37:23.781Z,50.10
2019-05-05T06:39:54.560Z,49.90
2019-05-05T06:42:24.822Z,49.90
2019-05-05T06:44:55.103Z,50.10
2019-05-05T06:47:25.179Z,50.10
2019-05-05T06:49:54.246Z,50.20
2019-05-05T06:52:24.853Z,50.20
2019-05-05T06:54:54.262Z,50.40
2019-05-05T06:57:24.016Z,50.30
2019-05-05T06:59:54.371Z,50.40
2019-05-05T07:02:23.781Z,50.70
2019-05-05T07:04:54.518Z,50.60
2019-05-05T07:07:23.619Z,50.60
2019-05-05T07:09:54.306Z,50.60
2019-05-05T07:12:24.174Z,50.70
2019-05-05T07:14:55.043Z,50.70
2019-05-05T07:17:24.511Z,51.00
2019-05-05T07:19:54.334Z,51.00
2019-05-05T07:22:24.457Z,51.10
2019-05-05T07:24:54.225Z,50.80
2019-05-05T07:27:24.356Z,51.50
2019-05-05T07:29:54.128Z,51.60
2019-05-05T07:32:24.564Z,51.70
2019-05-05T07:35:14.575Z,51.50
2019-05-05T07:37:43.729Z,51.60
2019-05-05T07:40:14.181Z,51.60
2019-05-05T07:42:44.064Z,51.50
2019-05-05T07:45:22.153Z,51.80
2019-05-05T07:47:47.356Z,51.70
2019-05-05T07:50:28.659Z,51.30
2019-05-05T07:52:47.783Z,51.30
2019-05-05T07:55:16.568Z,51.30
2019-05-05T07:57:45.436Z,50.90
2019-05-05T08:00:14.804Z,50.50
2019-05-05T08:02:44.018Z,50.50
2019-05-05T08:05:14.126Z,50.50
2019-05-05T08:07:44.676Z,50.10
2019-05-05T08:10:13.781Z,50.20
2019-05-05T08:12:43.640Z,50.10
2019-05-05T08:15:15.006Z,49.10
2019-05-05T08:17:51.483Z,50.00
2019-05-05T08:20:24.565Z,50.40
2019-05-05T08:22:53.718Z,50.00
2019-05-05T08:25:36.160Z,49.30
2019-05-05T08:28:04.933Z,49.00
2019-05-05T08:30:35.177Z,48.80
2019-05-05T08:33:04.608Z,48.50
2019-05-05T08:35:34.443Z,47.90
2019-05-05T08:38:04.590Z,47.90
2019-05-05T08:40:34.559Z,47.80
2019-05-05T08:43:04.638Z,47.70
2019-05-05T08:45:34.907Z,47.70
2019-05-05T08:48:04.933Z,47.80
2019-05-05T08:50:34.802Z,47.90
2019-05-05T08:53:08.086Z,47.80
2019-05-05T08:55:34.929Z,47.50
2019-05-05T08:58:04.576Z,46.90
2019-05-05T09:00:33.959Z,46.70
2019-05-05T09:03:03.837Z,46.80
2019-05-05T09:05:34.328Z,46.90
2019-05-05T09:08:04.514Z,46.80
2019-05-05T09:10:34.267Z,46.40
2019-05-05T09:13:03.899Z,45.90
2019-05-05T09:15:33.691Z,46.20
2019-05-05T09:18:04.924Z,46.20
2019-05-05T09:20:34.759Z,47.20
2019-05-05T09:23:04.280Z,46.70
2019-05-05T09:25:44.648Z,46.50
2019-05-05T09:28:23.938Z,47.10
2019-05-05T09:30:53.651Z,47.30
2019-05-05T09:33:24.784Z,47.50
2019-05-05T09:35:54.124Z,47.60
2019-05-05T09:38:23.914Z,47.40
2019-05-05T09:40:54.445Z,47.80
2019-05-05T09:43:24.040Z,47.90
2019-05-05T09:45:54.551Z,47.90
2019-05-05T09:48:24.317Z,48.20
2019-05-05T09:50:54.040Z,48.50
2019-05-05T09:53:23.795Z,48.10
2019-05-05T09:55:54.755Z,47.80
2019-05-05T09:58:24.230Z,47.40
2019-05-05T10:00:54.776Z,47.40
2019-05-05T10:03:23.910Z,47.50
2019-05-05T10:05:54.093Z,47.10
2019-05-05T10:08:23.653Z,46.80
2019-05-05T10:10:54.585Z,46.60
2019-05-05T10:13:23.152Z,45.80
2019-05-05T10:15:51.843Z,45.50
2019-05-05T10:18:20.550Z,45.30
2019-05-05T10:20:49.253Z,45.80
2019-05-05T10:23:18.189Z,45.60
2019-05-05T10:25:48.499Z,45.40
2019-05-05T10:28:17.179Z,45.60
2019-05-05T10:30:45.980Z,45.60
2019-05-05T10:33:14.665Z,45.90
2019-05-05T10:35:43.850Z,46.20
2019-05-05T10:38:14.273Z,46.30
2019-05-05T10:40:44.638Z,46.70
2019-05-05T10:43:14.814Z,46.60
2019-05-05T10:45:44.213Z,46.40
2019-05-05T10:48:14.364Z,46.40
2019-05-05T10:50:44.465Z,46.20
2019-05-05T10:53:13.799Z,46.30
2019-05-05T10:55:44.971Z,46.40
2019-05-05T10:58:13.800Z,46.90
2019-05-05T11:00:54.354Z,47.10
2019-05-05T11:03:25.170Z,47.30
2019-05-05T11:05:53.966Z,46.70
2019-05-05T11:08:24.136Z,46.70
2019-05-05T11:10:52.959Z,46.60
2019-05-05T11:13:23.989Z,46.40
2019-05-05T11:16:01.502Z,46.10
2019-05-05T11:18:31.107Z,46.20
2019-05-05T11:20:59.816Z,46.20
2019-05-05T11:23:28.548Z,46.20
2019-05-05T11:25:57.415Z,45.80
2019-05-05T11:28:26.236Z,45.70
2019-05-05T11:30:56.147Z,44.80
2019-05-05T11:33:29.234Z,44.80
2019-05-05T11:36:10.738Z,45.50
2019-05-05T11:38:41.491Z,45.20
2019-05-05T11:41:10.974Z,44.80
2019-05-05T11:43:39.683Z,44.40
2019-05-05T11:46:08.579Z,44.20
2019-05-05T11:48:37.697Z,43.70
2019-05-05T11:51:06.385Z,43.60
2019-05-05T11:53:35.065Z,43.50
2019-05-05T11:56:05.578Z,43.40
2019-05-05T11:58:37.006Z,42.90
2019-05-05T12:01:07.254Z,42.70
2019-05-05T15:20:56.080Z,40.70
2019-05-05T15:23:24.747Z,40.60
2019-05-05T15:25:54.099Z,40.50
2019-05-05T15:28:24.471Z,40.50
2019-05-05T15:30:54.539Z,40.50
2019-05-05T15:33:24.337Z,40.60
2019-05-05T15:35:54.163Z,40.50
2019-05-05T15:38:24.405Z,40.50
2019-05-05T15:40:54.724Z,40.60
2019-05-05T15:43:24.317Z,40.50
2019-05-05T15:45:54.024Z,40.80
2019-05-05T15:48:22.941Z,40.60
2019-05-05T15:50:51.644Z,40.50
2019-05-05T15:53:20.429Z,40.20
2019-05-05T15:55:49.097Z,39.90
2019-05-05T15:58:20.776Z,40.30
2019-05-05T16:00:48.416Z,40.10
2019-05-05T16:03:17.417Z,40.50
2019-05-05T16:05:46.182Z,40.30
2019-05-05T16:08:14.867Z,40.70
2019-05-05T16:10:46.343Z,40.70
2019-05-05T16:13:14.072Z,40.80
2019-05-05T16:15:44.342Z,42.20
2019-05-05T16:18:14.916Z,42.70
2019-05-05T16:20:45.177Z,43.30
2019-05-05T16:23:15.503Z,44.20
2019-05-05T16:25:46.344Z,43.40
2019-05-05T16:28:15.008Z,43.50
2019-05-05T16:30:44.506Z,43.10
2019-05-05T16:33:19.619Z,42.20
2019-05-05T16:35:48.326Z,42.00
2019-05-05T16:38:17.132Z,40.80
2019-05-05T16:40:46.113Z,40.60
2019-05-05T16:43:16.614Z,40.50
2019-05-05T16:45:45.633Z,40.70
2019-05-05T16:48:15.876Z,40.50
2019-05-05T16:50:45.974Z,40.50
2019-05-05T16:53:34.394Z,40.70
2019-05-05T16:56:14.444Z,40.50
2019-05-05T16:58:44.996Z,40.50
2019-05-05T17:01:15.156Z,40.50
2019-05-05T17:03:45.826Z,40.20
2019-05-05T17:06:14.819Z,39.90
2019-05-05T17:08:44.376Z,40.10
2019-05-05T17:11:15.091Z,40.00
2019-05-05T17:14:13.782Z,39.70
2019-05-05T17:16:54.453Z,39.80
2019-05-05T17:19:27.783Z,39.90
2019-05-05T17:22:09.735Z,39.10
2019-05-05T17:24:38.926Z,38.90
2019-05-05T17:27:07.849Z,38.90
2019-05-05T17:29:36.885Z,38.80
2019-05-05T17:32:06.765Z,39.00
2019-05-05T17:34:35.498Z,39.10
2019-05-05T17:37:04.385Z,39.20
2019-05-05T17:39:34.873Z,38.90
2019-05-05T17:42:07.782Z,39.40
2019-05-05T17:44:54.261Z,39.00
2019-05-05T17:47:27.257Z,39.40
2019-05-05T17:50:04.189Z,40.20
2019-05-05T17:52:38.361Z,40.00
2019-05-05T17:55:27.488Z,40.10
2019-05-05T17:58:01.495Z,40.00
2019-05-05T18:00:29.096Z,40.40
2019-05-05T18:02:57.872Z,40.50
2019-05-05T18:05:44.823Z,40.70
2019-05-05T18:08:15.564Z,40.20
2019-05-05T18:10:45.938Z,40.00
2019-05-05T18:13:25.394Z,40.00
2019-05-05T18:15:55.752Z,40.00
2019-05-05T18:18:25.514Z,39.90
2019-05-05T18:20:54.386Z,40.00
2019-05-05T18:23:23.476Z,39.90
2019-05-05T18:25:52.430Z,39.90
2019-05-05T18:28:24.574Z,40.10
2019-05-05T18:30:54.017Z,40.00
2019-05-05T18:33:24.642Z,40.00
2019-05-05T18:35:54.060Z,40.10
2019-05-05T18:38:23.606Z,40.10
2019-05-05T18:40:54.050Z,40.30
2019-05-05T18:43:24.379Z,40.20
2019-05-05T18:46:04.567Z,40.20
2019-05-05T18:48:34.539Z,40.00
2019-05-05T18:51:03.920Z,40.00
2019-05-05T18:53:34.202Z,39.90
2019-05-05T18:56:03.877Z,39.60
2019-05-05T18:58:34.152Z,39.80
2019-05-05T19:01:10.805Z,39.90
2019-05-05T19:03:44.191Z,39.70
2019-05-05T19:06:17.104Z,39.70
2019-05-05T19:09:07.363Z,39.70
2019-05-05T19:11:36.097Z,39.80
2019-05-05T19:14:04.800Z,39.80
2019-05-05T19:16:36.168Z,39.80
2019-05-05T19:19:06.212Z,39.70
2019-05-05T19:21:45.648Z,39.70
2019-05-05T19:24:14.533Z,39.90
2019-05-05T19:26:43.354Z,39.90
2019-05-05T19:29:13.547Z,39.80
2019-05-05T19:31:43.849Z,39.80
2019-05-05T19:34:14.555Z,40.00
2019-05-05T19:36:46.148Z,39.70
2019-05-05T19:39:14.976Z,39.50
2019-05-05T19:41:44.310Z,39.80
2019-05-05T19:44:14.690Z,40.10
2019-05-05T19:46:51.143Z,40.30
2019-05-05T19:49:24.193Z,40.30
2019-05-05T19:52:05.854Z,40.60
2019-05-05T19:54:36.354Z,40.50
2019-05-05T19:57:05.484Z,40.60
2019-05-05T19:59:35.827Z,40.60
2019-05-05T20:02:05.270Z,40.70
2019-05-05T20:04:53.732Z,40.50
2019-05-05T20:07:24.824Z,40.50
2019-05-05T20:09:54.397Z,40.80
2019-05-05T20:12:23.699Z,40.20
2019-05-05T20:14:54.270Z,40.20
2019-05-05T20:17:36.623Z,39.90
2019-05-05T20:20:09.090Z,40.10
2019-05-05T20:22:39.075Z,39.70
2019-05-05T20:25:10.979Z,39.80
2019-05-05T20:27:39.831Z,39.90
2019-05-05T20:30:08.706Z,40.00
2019-05-05T20:32:41.962Z,40.20
2019-05-05T20:35:24.016Z,40.00
2019-05-05T20:37:57.073Z,40.00
2019-05-05T20:40:29.885Z,40.20
2019-05-05T20:42:58.868Z,40.50
2019-05-05T20:45:29.206Z,40.40
2019-05-05T20:47:57.995Z,40.20
2019-05-05T20:50:26.694Z,40.50
2019-05-05T20:52:55.413Z,40.40
2019-05-05T20:55:25.909Z,40.50
2019-05-05T20:57:54.663Z,40.20
2019-05-05T21:00:24.766Z,40.50
2019-05-05T21:02:53.911Z,40.70
2019-05-05T21:05:24.175Z,40.60
2019-05-05T21:07:53.106Z,40.70
2019-05-05T21:10:23.960Z,40.90
2019-05-05T21:12:54.369Z,40.80
2019-05-05T21:15:24.647Z,40.60
2019-05-05T21:17:54.157Z,40.90
2019-05-05T21:20:24.113Z,40.90
2019-05-05T21:23:00.414Z,40.90
2019-05-05T21:25:33.908Z,41.40
2019-05-05T21:28:03.753Z,41.30
2019-05-05T21:30:33.760Z,41.20
2019-05-05T21:33:04.421Z,41.50
2019-05-05T21:35:34.860Z,41.50
2019-05-05T21:38:04.711Z,41.50
2019-05-05T21:40:34.626Z,41.80
2019-05-05T21:43:05.012Z,41.60
2019-05-05T21:45:34.737Z,41.80
2019-05-05T21:48:04.457Z,41.80
2019-05-05T21:50:34.855Z,42.10
2019-05-05T21:53:05.119Z,42.10
2019-05-05T21:55:38.319Z,42.30
2019-05-05T21:58:13.496Z,42.50
2019-05-05T22:00:49.349Z,42.60
2019-05-05T22:03:25.967Z,42.40
2019-05-05T22:05:56.862Z,42.70
2019-05-05T22:08:25.664Z,42.30
2019-05-05T22:10:54.443Z,42.40
2019-05-05T22:13:23.385Z,42.20
2019-05-05T22:15:54.438Z,42.20
2019-05-05T22:18:22.709Z,42.00
2019-05-05T22:20:54.657Z,42.20
2019-05-05T22:23:23.711Z,42.10
2019-05-05T22:25:54.368Z,42.10
2019-05-05T22:28:24.274Z,42.20
2019-05-05T22:30:55.333Z,42.40
2019-05-05T22:33:24.682Z,42.10
2019-05-05T22:35:54.838Z,42.10
2019-05-05T22:38:24.550Z,42.00
2019-05-05T22:40:54.568Z,42.10
2019-05-05T22:43:23.874Z,42.60
2019-05-05T22:45:54.164Z,42.10
2019-05-05T22:48:23.947Z,42.10
2019-05-05T22:50:54.472Z,42.30
2019-05-05T22:53:23.929Z,42.20
2019-05-05T22:55:52.999Z,42.00
2019-05-05T22:58:23.876Z,42.30
2019-05-05T23:00:54.682Z,42.20
2019-05-05T23:03:35.956Z,42.40
2019-05-05T23:06:06.199Z,42.40
2019-05-05T23:08:35.217Z,42.50
2019-05-05T23:11:04.193Z,42.40
2019-05-05T23:13:33.750Z,42.80
2019-05-05T23:16:04.195Z,43.40
2019-05-05T23:18:34.794Z,43.00
2019-05-05T23:21:15.870Z,43.00
2019-05-05T23:23:51.904Z,43.20
2019-05-05T23:26:30.875Z,43.20
2019-05-05T23:28:59.585Z,43.70
2019-05-05T23:31:28.276Z,43.40
2019-05-05T23:33:56.958Z,43.50
2019-05-05T23:36:25.660Z,43.20
2019-05-05T23:38:54.904Z,43.50
2019-05-05T23:41:24.031Z,43.40
2019-05-05T23:43:54.439Z,43.40
2019-05-05T23:46:24.258Z,43.30
2019-05-05T23:48:53.718Z,43.70
2019-05-05T23:51:24.210Z,43.60
2019-05-05T23:53:55.064Z,43.50
2019-05-05T23:56:24.071Z,43.60
2019-05-05T23:58:54.889Z,43.20
